sensor_id;sensor_type;location;lat;lon;timestamp;P1;durP1;ratioP1;P2;durP2;ratioP2
20067;SDS011;10194;50.824;7.134;2023-11-19T00:02:20;59.07;;;49.30;;
20067;SDS011;10194;50.824;7.134;2023-11-19T00:04:47;58.43;;;49.07;;
20067;SDS011;10194;50.824;7.134;2023-11-19T00:07:13;58.37;;;48.90;;
20067;SDS011;10194;50.824;7.134;2023-11-19T00:09:39;57.77;;;48.77;;
20067;SDS011;10194;50.824;7.134;2023-11-19T00:12:05;61.90;;;50.10;;
20067;SDS011;10194;50.824;7.134;2023-11-19T00:14:32;58.73;;;49.33;;
20067;SDS011;10194;50.824;7.134;2023-11-19T00:16:59;65.20;;;51.37;;
20067;SDS011;10194;50.824;7.134;2023-11-19T00:19:25;59.23;;;49.40;;
20067;SDS011;10194;50.824;7.134;2023-11-19T00:21:51;59.77;;;49.73;;
20067;SDS011;10194;50.824;7.134;2023-11-19T00:24:18;57.70;;;48.60;;
20067;SDS011;10194;50.824;7.134;2023-11-19T00:26:45;57.70;;;48.73;;
20067;SDS011;10194;50.824;7.134;2023-11-19T00:29:11;57.70;;;48.73;;
20067;SDS011;10194;50.824;7.134;2023-11-19T00:31:38;57.67;;;48.70;;
20067;SDS011;10194;50.824;7.134;2023-11-19T00:34:04;57.37;;;48.40;;
20067;SDS011;10194;50.824;7.134;2023-11-19T00:36:31;60.80;;;50.37;;
20067;SDS011;10194;50.824;7.134;2023-11-19T00:38:56;59.27;;;49.70;;
20067;SDS011;10194;50.824;7.134;2023-11-19T00:41:23;57.23;;;48.53;;
20067;SDS011;10194;50.824;7.134;2023-11-19T00:43:50;57.77;;;48.80;;
20067;SDS011;10194;50.824;7.134;2023-11-19T00:46:21;57.87;;;48.80;;
20067;SDS011;10194;50.824;7.134;2023-11-19T00:48:46;57.70;;;48.63;;
20067;SDS011;10194;50.824;7.134;2023-11-19T00:51:12;58.33;;;49.13;;
20067;SDS011;10194;50.824;7.134;2023-11-19T00:53:39;58.00;;;48.93;;
20067;SDS011;10194;50.824;7.134;2023-11-19T00:56:05;58.23;;;49.10;;
20067;SDS011;10194;50.824;7.134;2023-11-19T00:58:31;60.33;;;49.87;;
20067;SDS011;10194;50.824;7.134;2023-11-19T01:00:57;58.43;;;49.20;;
20067;SDS011;10194;50.824;7.134;2023-11-19T01:03:23;58.97;;;49.53;;
20067;SDS011;10194;50.824;7.134;2023-11-19T01:05:48;59.90;;;49.93;;
20067;SDS011;10194;50.824;7.134;2023-11-19T01:08:14;58.23;;;49.07;;
20067;SDS011;10194;50.824;7.134;2023-11-19T01:10:44;59.83;;;49.70;;
20067;SDS011;10194;50.824;7.134;2023-11-19T01:13:12;61.03;;;50.17;;
20067;SDS011;10194;50.824;7.134;2023-11-19T01:15:38;59.80;;;49.93;;
20067;SDS011;10194;50.824;7.134;2023-11-19T01:18:06;58.60;;;49.50;;
20067;SDS011;10194;50.824;7.134;2023-11-19T01:20:34;58.53;;;49.33;;
20067;SDS011;10194;50.824;7.134;2023-11-19T01:23:00;58.10;;;49.03;;
20067;SDS011;10194;50.824;7.134;2023-11-19T01:25:25;60.23;;;50.07;;
20067;SDS011;10194;50.824;7.134;2023-11-19T01:27:51;59.17;;;49.83;;
20067;SDS011;10194;50.824;7.134;2023-11-19T01:30:17;59.33;;;49.70;;
20067;SDS011;10194;50.824;7.134;2023-11-19T01:32:44;58.80;;;49.63;;
20067;SDS011;10194;50.824;7.134;2023-11-19T01:35:10;58.13;;;49.07;;
20067;SDS011;10194;50.824;7.134;2023-11-19T01:37:36;58.50;;;49.40;;
20067;SDS011;10194;50.824;7.134;2023-11-19T01:40:02;59.13;;;49.73;;
20067;SDS011;10194;50.824;7.134;2023-11-19T01:42:39;59.70;;;49.97;;
20067;SDS011;10194;50.824;7.134;2023-11-19T01:45:06;58.87;;;49.67;;
20067;SDS011;10194;50.824;7.134;2023-11-19T01:47:33;58.53;;;49.40;;
20067;SDS011;10194;50.824;7.134;2023-11-19T01:50:01;59.50;;;49.87;;
20067;SDS011;10194;50.824;7.134;2023-11-19T01:52:31;58.60;;;49.47;;
20067;SDS011;10194;50.824;7.134;2023-11-19T01:55:01;59.00;;;49.57;;
20067;SDS011;10194;50.824;7.134;2023-11-19T01:57:28;58.87;;;49.60;;
20067;SDS011;10194;50.824;7.134;2023-11-19T01:59:53;59.37;;;49.83;;
20067;SDS011;10194;50.824;7.134;2023-11-19T02:02:19;59.13;;;49.80;;
20067;SDS011;10194;50.824;7.134;2023-11-19T02:04:49;59.17;;;49.60;;
20067;SDS011;10194;50.824;7.134;2023-11-19T02:07:16;58.77;;;49.53;;
20067;SDS011;10194;50.824;7.134;2023-11-19T02:09:45;61.60;;;50.57;;
20067;SDS011;10194;50.824;7.134;2023-11-19T02:12:11;58.87;;;49.67;;
20067;SDS011;10194;50.824;7.134;2023-11-19T02:14:37;58.70;;;49.40;;
20067;SDS011;10194;50.824;7.134;2023-11-19T02:17:03;66.63;;;52.40;;
20067;SDS011;10194;50.824;7.134;2023-11-19T02:19:29;58.27;;;49.23;;
20067;SDS011;10194;50.824;7.134;2023-11-19T02:21:55;60.87;;;50.30;;
20067;SDS011;10194;50.824;7.134;2023-11-19T02:24:21;58.70;;;49.37;;
20067;SDS011;10194;50.824;7.134;2023-11-19T02:26:55;59.90;;;50.10;;
20067;SDS011;10194;50.824;7.134;2023-11-19T02:29:33;58.60;;;49.43;;
20067;SDS011;10194;50.824;7.134;2023-11-19T02:32:00;58.87;;;49.47;;
20067;SDS011;10194;50.824;7.134;2023-11-19T02:34:28;60.23;;;50.10;;
20067;SDS011;10194;50.824;7.134;2023-11-19T02:36:54;62.10;;;50.40;;
20067;SDS011;10194;50.824;7.134;2023-11-19T02:39:19;58.17;;;49.23;;
20067;SDS011;10194;50.824;7.134;2023-11-19T02:41:47;58.37;;;49.33;;
20067;SDS011;10194;50.824;7.134;2023-11-19T02:44:15;58.20;;;49.13;;
20067;SDS011;10194;50.824;7.134;2023-11-19T02:46:42;58.57;;;49.30;;
20067;SDS011;10194;50.824;7.134;2023-11-19T02:49:07;61.67;;;50.70;;
20067;SDS011;10194;50.824;7.134;2023-11-19T02:51:33;59.53;;;49.93;;
20067;SDS011;10194;50.824;7.134;2023-11-19T02:54:00;63.30;;;51.20;;
20067;SDS011;10194;50.824;7.134;2023-11-19T02:56:28;59.77;;;50.07;;
20067;SDS011;10194;50.824;7.134;2023-11-19T02:58:59;58.90;;;49.73;;
20067;SDS011;10194;50.824;7.134;2023-11-19T03:01:33;58.73;;;49.43;;
20067;SDS011;10194;50.824;7.134;2023-11-19T03:04:01;58.77;;;49.60;;
20067;SDS011;10194;50.824;7.134;2023-11-19T03:06:27;61.37;;;51.00;;
20067;SDS011;10194;50.824;7.134;2023-11-19T03:08:54;59.40;;;49.83;;
20067;SDS011;10194;50.824;7.134;2023-11-19T03:11:20;58.17;;;49.20;;
20067;SDS011;10194;50.824;7.134;2023-11-19T03:13:46;65.43;;;51.83;;
20067;SDS011;10194;50.824;7.134;2023-11-19T03:16:12;58.17;;;49.20;;
20067;SDS011;10194;50.824;7.134;2023-11-19T03:18:38;58.90;;;49.73;;
20067;SDS011;10194;50.824;7.134;2023-11-19T03:21:07;58.87;;;49.60;;
20067;SDS011;10194;50.824;7.134;2023-11-19T03:23:33;58.03;;;49.20;;
20067;SDS011;10194;50.824;7.134;2023-11-19T03:26:00;64.70;;;51.73;;
20067;SDS011;10194;50.824;7.134;2023-11-19T03:28:30;57.90;;;49.03;;
20067;SDS011;10194;50.824;7.134;2023-11-19T03:30:56;57.90;;;48.93;;
20067;SDS011;10194;50.824;7.134;2023-11-19T03:33:22;59.07;;;49.77;;
20067;SDS011;10194;50.824;7.134;2023-11-19T03:35:48;63.77;;;51.20;;
20067;SDS011;10194;50.824;7.134;2023-11-19T03:38:13;58.50;;;49.43;;
20067;SDS011;10194;50.824;7.134;2023-11-19T03:40:39;58.67;;;49.37;;
20067;SDS011;10194;50.824;7.134;2023-11-19T03:43:05;58.20;;;49.27;;
20067;SDS011;10194;50.824;7.134;2023-11-19T03:45:31;60.00;;;49.93;;
20067;SDS011;10194;50.824;7.134;2023-11-19T03:47:57;57.83;;;48.97;;
20067;SDS011;10194;50.824;7.134;2023-11-19T03:50:23;59.50;;;49.67;;
20067;SDS011;10194;50.824;7.134;2023-11-19T03:52:49;57.70;;;48.80;;
20067;SDS011;10194;50.824;7.134;2023-11-19T03:55:14;57.90;;;49.03;;
20067;SDS011;10194;50.824;7.134;2023-11-19T03:57:40;59.20;;;49.37;;
20067;SDS011;10194;50.824;7.134;2023-11-19T04:00:06;58.23;;;49.03;;
20067;SDS011;10194;50.824;7.134;2023-11-19T04:02:38;58.87;;;49.57;;
20067;SDS011;10194;50.824;7.134;2023-11-19T04:05:05;58.00;;;49.03;;
20067;SDS011;10194;50.824;7.134;2023-11-19T04:07:31;66.50;;;52.53;;
20067;SDS011;10194;50.824;7.134;2023-11-19T04:09:57;58.97;;;49.50;;
20067;SDS011;10194;50.824;7.134;2023-11-19T04:12:23;61.67;;;50.50;;
20067;SDS011;10194;50.824;7.134;2023-11-19T04:14:49;59.03;;;49.57;;
20067;SDS011;10194;50.824;7.134;2023-11-19T04:17:15;62.10;;;50.97;;
20067;SDS011;10194;50.824;7.134;2023-11-19T04:19:41;59.80;;;49.97;;
20067;SDS011;10194;50.824;7.134;2023-11-19T04:22:09;59.20;;;49.80;;
20067;SDS011;10194;50.824;7.134;2023-11-19T04:24:35;58.53;;;49.33;;
20067;SDS011;10194;50.824;7.134;2023-11-19T04:27:01;66.30;;;52.33;;
20067;SDS011;10194;50.824;7.134;2023-11-19T04:29:29;58.50;;;49.43;;
20067;SDS011;10194;50.824;7.134;2023-11-19T04:31:56;60.07;;;50.20;;
20067;SDS011;10194;50.824;7.134;2023-11-19T04:34:21;58.87;;;49.73;;
20067;SDS011;10194;50.824;7.134;2023-11-19T04:36:47;60.00;;;49.93;;
20067;SDS011;10194;50.824;7.134;2023-11-19T04:39:13;64.10;;;51.73;;
20067;SDS011;10194;50.824;7.134;2023-11-19T04:41:46;59.13;;;49.80;;
20067;SDS011;10194;50.824;7.134;2023-11-19T04:44:17;59.67;;;49.90;;
20067;SDS011;10194;50.824;7.134;2023-11-19T04:46:43;59.43;;;50.10;;
20067;SDS011;10194;50.824;7.134;2023-11-19T04:49:09;59.63;;;50.10;;
20067;SDS011;10194;50.824;7.134;2023-11-19T04:51:41;59.00;;;49.73;;
20067;SDS011;10194;50.824;7.134;2023-11-19T04:54:09;58.80;;;49.63;;
20067;SDS011;10194;50.824;7.134;2023-11-19T04:56:36;65.47;;;52.13;;
20067;SDS011;10194;50.824;7.134;2023-11-19T04:59:02;63.97;;;51.70;;
20067;SDS011;10194;50.824;7.134;2023-11-19T05:01:30;58.77;;;49.60;;
20067;SDS011;10194;50.824;7.134;2023-11-19T05:03:59;59.50;;;50.07;;
20067;SDS011;10194;50.824;7.134;2023-11-19T05:06:28;62.67;;;51.80;;
20067;SDS011;10194;50.824;7.134;2023-11-19T05:08:58;59.03;;;49.77;;
20067;SDS011;10194;50.824;7.134;2023-11-19T05:11:35;64.60;;;51.97;;
20067;SDS011;10194;50.824;7.134;2023-11-19T05:14:04;65.70;;;52.23;;
20067;SDS011;10194;50.824;7.134;2023-11-19T05:16:30;62.03;;;51.20;;
20067;SDS011;10194;50.824;7.134;2023-11-19T05:18:56;59.37;;;49.90;;
20067;SDS011;10194;50.824;7.134;2023-11-19T05:21:22;59.33;;;49.87;;
20067;SDS011;10194;50.824;7.134;2023-11-19T05:23:48;58.83;;;49.57;;
20067;SDS011;10194;50.824;7.134;2023-11-19T05:26:21;65.70;;;52.07;;
20067;SDS011;10194;50.824;7.134;2023-11-19T05:28:48;59.17;;;49.73;;
20067;SDS011;10194;50.824;7.134;2023-11-19T05:31:15;61.50;;;50.33;;
20067;SDS011;10194;50.824;7.134;2023-11-19T05:33:42;62.40;;;51.00;;
20067;SDS011;10194;50.824;7.134;2023-11-19T05:36:08;62.07;;;50.80;;
20067;SDS011;10194;50.824;7.134;2023-11-19T05:38:35;58.83;;;49.53;;
20067;SDS011;10194;50.824;7.134;2023-11-19T05:41:02;58.53;;;49.30;;
20067;SDS011;10194;50.824;7.134;2023-11-19T05:43:28;61.33;;;50.47;;
20067;SDS011;10194;50.824;7.134;2023-11-19T05:45:54;58.90;;;49.60;;
20067;SDS011;10194;50.824;7.134;2023-11-19T05:48:19;59.50;;;49.87;;
20067;SDS011;10194;50.824;7.134;2023-11-19T05:50:45;58.70;;;49.47;;
20067;SDS011;10194;50.824;7.134;2023-11-19T05:53:11;59.20;;;49.83;;
20067;SDS011;10194;50.824;7.134;2023-11-19T05:55:39;60.23;;;50.20;;
20067;SDS011;10194;50.824;7.134;2023-11-19T05:58:11;61.57;;;50.80;;
20067;SDS011;10194;50.824;7.134;2023-11-19T06:00:38;58.63;;;49.50;;
20067;SDS011;10194;50.824;7.134;2023-11-19T06:03:05;58.87;;;49.53;;
20067;SDS011;10194;50.824;7.134;2023-11-19T06:05:32;59.27;;;49.83;;
20067;SDS011;10194;50.824;7.134;2023-11-19T06:07:58;58.93;;;49.57;;
20067;SDS011;10194;50.824;7.134;2023-11-19T06:10:24;58.63;;;49.50;;
20067;SDS011;10194;50.824;7.134;2023-11-19T06:12:55;58.50;;;49.40;;
20067;SDS011;10194;50.824;7.134;2023-11-19T06:15:27;58.60;;;49.37;;
20067;SDS011;10194;50.824;7.134;2023-11-19T06:17:53;59.03;;;49.60;;
20067;SDS011;10194;50.824;7.134;2023-11-19T06:20:25;64.40;;;51.40;;
20067;SDS011;10194;50.824;7.134;2023-11-19T06:22:53;60.97;;;50.90;;
20067;SDS011;10194;50.824;7.134;2023-11-19T06:25:20;58.47;;;49.40;;
20067;SDS011;10194;50.824;7.134;2023-11-19T06:27:45;58.37;;;49.20;;
20067;SDS011;10194;50.824;7.134;2023-11-19T06:30:11;59.47;;;49.93;;
20067;SDS011;10194;50.824;7.134;2023-11-19T06:32:38;59.20;;;49.90;;
20067;SDS011;10194;50.824;7.134;2023-11-19T06:35:04;59.00;;;49.80;;
20067;SDS011;10194;50.824;7.134;2023-11-19T06:37:31;59.00;;;49.80;;
20067;SDS011;10194;50.824;7.134;2023-11-19T06:39:57;60.23;;;50.43;;
20067;SDS011;10194;50.824;7.134;2023-11-19T06:42:22;59.57;;;50.23;;
20067;SDS011;10194;50.824;7.134;2023-11-19T06:44:48;58.53;;;49.47;;
20067;SDS011;10194;50.824;7.134;2023-11-19T06:47:14;58.97;;;49.73;;
20067;SDS011;10194;50.824;7.134;2023-11-19T06:49:40;59.60;;;50.00;;
20067;SDS011;10194;50.824;7.134;2023-11-19T06:52:09;64.50;;;51.90;;
20067;SDS011;10194;50.824;7.134;2023-11-19T06:54:34;59.60;;;50.03;;
20067;SDS011;10194;50.824;7.134;2023-11-19T06:57:01;67.13;;;52.87;;
20067;SDS011;10194;50.824;7.134;2023-11-19T06:59:28;64.47;;;51.83;;
20067;SDS011;10194;50.824;7.134;2023-11-19T07:01:54;64.30;;;52.00;;
20067;SDS011;10194;50.824;7.134;2023-11-19T07:04:20;59.20;;;50.03;;
20067;SDS011;10194;50.824;7.134;2023-11-19T07:06:46;59.70;;;50.27;;
20067;SDS011;10194;50.824;7.134;2023-11-19T07:09:13;61.10;;;50.67;;
20067;SDS011;10194;50.824;7.134;2023-11-19T07:11:39;59.27;;;49.93;;
20067;SDS011;10194;50.824;7.134;2023-11-19T07:14:07;58.93;;;49.67;;
20067;SDS011;10194;50.824;7.134;2023-11-19T07:16:33;62.40;;;51.40;;
20067;SDS011;10194;50.824;7.134;2023-11-19T07:19:02;58.80;;;49.73;;
20067;SDS011;10194;50.824;7.134;2023-11-19T07:21:28;59.33;;;49.77;;
20067;SDS011;10194;50.824;7.134;2023-11-19T07:23:55;59.00;;;49.77;;
20067;SDS011;10194;50.824;7.134;2023-11-19T07:26:21;59.17;;;49.67;;
20067;SDS011;10194;50.824;7.134;2023-11-19T07:28:48;58.53;;;49.43;;
20067;SDS011;10194;50.824;7.134;2023-11-19T07:31:17;59.03;;;49.73;;
20067;SDS011;10194;50.824;7.134;2023-11-19T07:33:46;60.57;;;50.27;;
20067;SDS011;10194;50.824;7.134;2023-11-19T07:36:12;58.80;;;49.50;;
20067;SDS011;10194;50.824;7.134;2023-11-19T07:38:38;61.67;;;50.63;;
20067;SDS011;10194;50.824;7.134;2023-11-19T07:41:05;58.47;;;49.30;;
20067;SDS011;10194;50.824;7.134;2023-11-19T07:43:31;62.30;;;51.07;;
20067;SDS011;10194;50.824;7.134;2023-11-19T07:45:58;59.00;;;49.60;;
20067;SDS011;10194;50.824;7.134;2023-11-19T07:48:28;59.23;;;49.87;;
20067;SDS011;10194;50.824;7.134;2023-11-19T07:50:54;58.83;;;49.67;;
20067;SDS011;10194;50.824;7.134;2023-11-19T07:53:20;59.17;;;49.80;;
20067;SDS011;10194;50.824;7.134;2023-11-19T07:55:46;59.67;;;50.17;;
20067;SDS011;10194;50.824;7.134;2023-11-19T07:58:12;65.07;;;52.10;;
20067;SDS011;10194;50.824;7.134;2023-11-19T08:00:38;59.30;;;50.00;;
20067;SDS011;10194;50.824;7.134;2023-11-19T08:03:04;59.27;;;50.00;;
20067;SDS011;10194;50.824;7.134;2023-11-19T08:05:33;59.53;;;50.03;;
20067;SDS011;10194;50.824;7.134;2023-11-19T08:07:58;64.83;;;52.17;;
20067;SDS011;10194;50.824;7.134;2023-11-19T08:10:24;64.30;;;51.93;;
20067;SDS011;10194;50.824;7.134;2023-11-19T08:12:50;60.10;;;50.20;;
20067;SDS011;10194;50.824;7.134;2023-11-19T08:15:16;59.57;;;49.97;;
20067;SDS011;10194;50.824;7.134;2023-11-19T08:17:42;61.23;;;50.67;;
20067;SDS011;10194;50.824;7.134;2023-11-19T08:20:08;61.30;;;50.50;;
20067;SDS011;10194;50.824;7.134;2023-11-19T08:22:38;59.43;;;50.07;;
20067;SDS011;10194;50.824;7.134;2023-11-19T08:25:04;59.43;;;49.87;;
20067;SDS011;10194;50.824;7.134;2023-11-19T08:27:31;60.27;;;50.43;;
20067;SDS011;10194;50.824;7.134;2023-11-19T08:29:57;60.37;;;50.30;;
20067;SDS011;10194;50.824;7.134;2023-11-19T08:32:24;59.90;;;50.33;;
20067;SDS011;10194;50.824;7.134;2023-11-19T08:34:50;60.90;;;50.87;;
20067;SDS011;10194;50.824;7.134;2023-11-19T08:37:16;59.73;;;50.20;;
20067;SDS011;10194;50.824;7.134;2023-11-19T08:39:47;63.90;;;51.73;;
20067;SDS011;10194;50.824;7.134;2023-11-19T08:42:13;59.83;;;50.10;;
20067;SDS011;10194;50.824;7.134;2023-11-19T08:44:39;62.20;;;51.27;;
20067;SDS011;10194;50.824;7.134;2023-11-19T08:47:08;63.57;;;51.70;;
20067;SDS011;10194;50.824;7.134;2023-11-19T08:49:34;63.33;;;51.53;;
20067;SDS011;10194;50.824;7.134;2023-11-19T08:52:00;60.57;;;50.30;;
20067;SDS011;10194;50.824;7.134;2023-11-19T08:54:26;65.27;;;52.30;;
20067;SDS011;10194;50.824;7.134;2023-11-19T08:56:52;62.37;;;51.07;;
20067;SDS011;10194;50.824;7.134;2023-11-19T08:59:18;60.07;;;50.30;;
20067;SDS011;10194;50.824;7.134;2023-11-19T09:01:44;61.40;;;51.00;;
20067;SDS011;10194;50.824;7.134;2023-11-19T09:04:10;65.53;;;52.57;;
20067;SDS011;10194;50.824;7.134;2023-11-19T09:06:36;69.97;;;54.70;;
20067;SDS011;10194;50.824;7.134;2023-11-19T09:09:02;61.17;;;51.03;;
20067;SDS011;10194;50.824;7.134;2023-11-19T09:11:40;69.30;;;54.53;;
20067;SDS011;10194;50.824;7.134;2023-11-19T09:14:09;63.30;;;52.10;;
20067;SDS011;10194;50.824;7.134;2023-11-19T09:16:35;67.43;;;54.10;;
20067;SDS011;10194;50.824;7.134;2023-11-19T09:19:04;66.17;;;53.03;;
20067;SDS011;10194;50.824;7.134;2023-11-19T09:21:30;66.33;;;53.03;;
20067;SDS011;10194;50.824;7.134;2023-11-19T09:23:59;65.80;;;53.63;;
20067;SDS011;10194;50.824;7.134;2023-11-19T09:26:26;70.87;;;55.87;;
20067;SDS011;10194;50.824;7.134;2023-11-19T09:28:54;64.13;;;52.57;;
20067;SDS011;10194;50.824;7.134;2023-11-19T09:31:21;65.80;;;53.07;;
20067;SDS011;10194;50.824;7.134;2023-11-19T09:33:47;64.70;;;52.53;;
20067;SDS011;10194;50.824;7.134;2023-11-19T09:36:13;68.60;;;54.13;;
20067;SDS011;10194;50.824;7.134;2023-11-19T09:38:40;64.57;;;52.30;;
20067;SDS011;10194;50.824;7.134;2023-11-19T09:41:06;66.60;;;53.40;;
20067;SDS011;10194;50.824;7.134;2023-11-19T09:43:38;60.60;;;50.93;;
20067;SDS011;10194;50.824;7.134;2023-11-19T09:46:06;72.70;;;56.17;;
20067;SDS011;10194;50.824;7.134;2023-11-19T09:48:39;65.23;;;52.93;;
20067;SDS011;10194;50.824;7.134;2023-11-19T09:51:10;63.80;;;52.03;;
20067;SDS011;10194;50.824;7.134;2023-11-19T09:53:37;61.73;;;51.47;;
20067;SDS011;10194;50.824;7.134;2023-11-19T09:56:05;69.13;;;54.50;;
20067;SDS011;10194;50.824;7.134;2023-11-19T09:58:32;62.57;;;51.90;;
20067;SDS011;10194;50.824;7.134;2023-11-19T10:01:01;65.93;;;53.10;;
20067;SDS011;10194;50.824;7.134;2023-11-19T10:03:32;65.40;;;52.83;;
20067;SDS011;10194;50.824;7.134;2023-11-19T10:06:26;70.83;;;55.50;;
20067;SDS011;10194;50.824;7.134;2023-11-19T10:08:52;65.00;;;52.87;;
20067;SDS011;10194;50.824;7.134;2023-11-19T10:11:18;61.33;;;51.57;;
20067;SDS011;10194;50.824;7.134;2023-11-19T10:13:45;66.50;;;53.63;;
20067;SDS011;10194;50.824;7.134;2023-11-19T10:16:13;68.57;;;54.67;;
20067;SDS011;10194;50.824;7.134;2023-11-19T10:18:44;68.10;;;54.13;;
20067;SDS011;10194;50.824;7.134;2023-11-19T10:21:18;71.40;;;55.60;;
20067;SDS011;10194;50.824;7.134;2023-11-19T10:23:48;67.23;;;53.80;;
20067;SDS011;10194;50.824;7.134;2023-11-19T10:26:16;67.07;;;53.87;;
20067;SDS011;10194;50.824;7.134;2023-11-19T10:28:42;63.17;;;52.27;;
20067;SDS011;10194;50.824;7.134;2023-11-19T10:31:10;63.60;;;52.47;;
20067;SDS011;10194;50.824;7.134;2023-11-19T10:33:40;67.93;;;54.23;;
20067;SDS011;10194;50.824;7.134;2023-11-19T10:36:08;70.13;;;54.70;;
20067;SDS011;10194;50.824;7.134;2023-11-19T10:38:34;70.10;;;54.87;;
20067;SDS011;10194;50.824;7.134;2023-11-19T10:41:01;71.87;;;55.23;;
20067;SDS011;10194;50.824;7.134;2023-11-19T10:43:27;70.37;;;54.73;;
20067;SDS011;10194;50.824;7.134;2023-11-19T10:45:53;73.00;;;56.10;;
20067;SDS011;10194;50.824;7.134;2023-11-19T10:48:19;73.73;;;56.47;;
20067;SDS011;10194;50.824;7.134;2023-11-19T10:50:49;73.73;;;56.10;;
20067;SDS011;10194;50.824;7.134;2023-11-19T10:53:22;65.27;;;52.67;;
20067;SDS011;10194;50.824;7.134;2023-11-19T10:55:51;72.07;;;55.50;;
20067;SDS011;10194;50.824;7.134;2023-11-19T10:58:18;69.37;;;54.50;;
20067;SDS011;10194;50.824;7.134;2023-11-19T11:00:45;71.60;;;55.27;;
20067;SDS011;10194;50.824;7.134;2023-11-19T11:03:20;71.50;;;55.33;;
20067;SDS011;10194;50.824;7.134;2023-11-19T11:05:50;72.37;;;55.73;;
20067;SDS011;10194;50.824;7.134;2023-11-19T11:08:18;72.30;;;55.70;;
20067;SDS011;10194;50.824;7.134;2023-11-19T11:13:20;68.57;;;54.20;;
20067;SDS011;10194;50.824;7.134;2023-11-19T11:15:49;72.33;;;55.80;;
20067;SDS011;10194;50.824;7.134;2023-11-19T11:18:16;71.87;;;55.43;;
20067;SDS011;10194;50.824;7.134;2023-11-19T11:20:45;71.87;;;55.57;;
20067;SDS011;10194;50.824;7.134;2023-11-19T11:36:59;71.93;;;55.43;;
20067;SDS011;10194;50.824;7.134;2023-11-19T11:39:35;69.47;;;54.70;;
20067;SDS011;10194;50.824;7.134;2023-11-19T11:47:49;72.47;;;55.80;;
20067;SDS011;10194;50.824;7.134;2023-11-19T11:50:21;69.50;;;54.50;;
20067;SDS011;10194;50.824;7.134;2023-11-19T11:55:25;72.00;;;55.60;;
20067;SDS011;10194;50.824;7.134;2023-11-19T11:57:54;71.23;;;55.43;;
20067;SDS011;10194;50.824;7.134;2023-11-19T12:00:30;69.77;;;54.67;;
20067;SDS011;10194;50.824;7.134;2023-11-19T12:03:07;67.60;;;53.80;;
20067;SDS011;10194;50.824;7.134;2023-11-19T12:05:40;66.07;;;53.17;;
20067;SDS011;10194;50.824;7.134;2023-11-19T12:08:11;68.60;;;54.20;;
20067;SDS011;10194;50.824;7.134;2023-11-19T12:10:47;69.57;;;54.50;;
20067;SDS011;10194;50.824;7.134;2023-11-19T12:13:17;63.70;;;52.13;;
20067;SDS011;10194;50.824;7.134;2023-11-19T12:18:26;70.43;;;54.80;;
20067;SDS011;10194;50.824;7.134;2023-11-19T12:20:54;71.73;;;55.40;;
20067;SDS011;10194;50.824;7.134;2023-11-19T12:23:24;68.57;;;54.20;;
20067;SDS011;10194;50.824;7.134;2023-11-19T12:25:51;71.77;;;55.40;;
20067;SDS011;10194;50.824;7.134;2023-11-19T12:28:17;67.80;;;53.90;;
20067;SDS011;10194;50.824;7.134;2023-11-19T12:30:44;71.23;;;55.03;;
20067;SDS011;10194;50.824;7.134;2023-11-19T12:33:11;70.07;;;55.00;;
20067;SDS011;10194;50.824;7.134;2023-11-19T12:35:42;71.77;;;55.93;;
20067;SDS011;10194;50.824;7.134;2023-11-19T12:41:10;71.60;;;55.10;;
20067;SDS011;10194;50.824;7.134;2023-11-19T12:43:42;73.30;;;56.87;;
20067;SDS011;10194;50.824;7.134;2023-11-19T12:46:21;68.10;;;54.23;;
20067;SDS011;10194;50.824;7.134;2023-11-19T12:48:51;69.83;;;55.23;;
20067;SDS011;10194;50.824;7.134;2023-11-19T12:51:18;63.07;;;51.87;;
20067;SDS011;10194;50.824;7.134;2023-11-19T12:53:51;69.23;;;55.03;;
20067;SDS011;10194;50.824;7.134;2023-11-19T12:56:22;72.60;;;56.63;;
20067;SDS011;10194;50.824;7.134;2023-11-19T12:58:49;71.97;;;56.10;;
20067;SDS011;10194;50.824;7.134;2023-11-19T13:01:17;71.67;;;55.73;;
20067;SDS011;10194;50.824;7.134;2023-11-19T13:03:51;68.63;;;54.80;;
20067;SDS011;10194;50.824;7.134;2023-11-19T13:06:17;69.47;;;54.87;;
20067;SDS011;10194;50.824;7.134;2023-11-19T13:08:55;70.70;;;55.33;;
20067;SDS011;10194;50.824;7.134;2023-11-19T13:11:33;70.83;;;55.67;;
20067;SDS011;10194;50.824;7.134;2023-11-19T13:14:04;71.73;;;56.20;;
20067;SDS011;10194;50.824;7.134;2023-11-19T13:16:33;74.80;;;57.83;;
20067;SDS011;10194;50.824;7.134;2023-11-19T13:19:02;70.73;;;55.83;;
20067;SDS011;10194;50.824;7.134;2023-11-19T13:21:28;68.87;;;55.07;;
20067;SDS011;10194;50.824;7.134;2023-11-19T13:23:55;64.23;;;52.63;;
20067;SDS011;10194;50.824;7.134;2023-11-19T13:26:21;75.50;;;58.37;;
20067;SDS011;10194;50.824;7.134;2023-11-19T13:28:48;64.93;;;53.10;;
20067;SDS011;10194;50.824;7.134;2023-11-19T13:31:14;65.53;;;54.30;;
20067;SDS011;10194;50.824;7.134;2023-11-19T13:33:40;72.60;;;57.37;;
20067;SDS011;10194;50.824;7.134;2023-11-19T13:36:06;72.17;;;57.10;;
20067;SDS011;10194;50.824;7.134;2023-11-19T13:38:36;72.93;;;57.53;;
20067;SDS011;10194;50.824;7.134;2023-11-19T13:41:02;66.77;;;54.27;;
20067;SDS011;10194;50.824;7.134;2023-11-19T13:43:34;73.73;;;57.93;;
20067;SDS011;10194;50.824;7.134;2023-11-19T13:45:59;73.53;;;57.67;;
20067;SDS011;10194;50.824;7.134;2023-11-19T13:48:25;72.80;;;56.90;;
20067;SDS011;10194;50.824;7.134;2023-11-19T13:50:53;70.30;;;55.90;;
20067;SDS011;10194;50.824;7.134;2023-11-19T13:53:20;66.97;;;54.23;;
20067;SDS011;10194;50.824;7.134;2023-11-19T13:55:46;70.50;;;56.00;;
20067;SDS011;10194;50.824;7.134;2023-11-19T13:58:12;68.90;;;54.67;;
20067;SDS011;10194;50.824;7.134;2023-11-19T14:00:38;72.57;;;56.60;;
20067;SDS011;10194;50.824;7.134;2023-11-19T14:03:06;71.93;;;56.43;;
20067;SDS011;10194;50.824;7.134;2023-11-19T14:05:33;66.93;;;54.40;;
20067;SDS011;10194;50.824;7.134;2023-11-19T14:07:58;64.33;;;53.27;;
20067;SDS011;10194;50.824;7.134;2023-11-19T14:10:26;66.60;;;53.80;;
20067;SDS011;10194;50.824;7.134;2023-11-19T14:12:52;64.83;;;52.87;;
20067;SDS011;10194;50.824;7.134;2023-11-19T14:15:17;71.90;;;56.30;;
20067;SDS011;10194;50.824;7.134;2023-11-19T14:17:44;69.50;;;54.93;;
20067;SDS011;10194;50.824;7.134;2023-11-19T14:20:10;69.27;;;54.57;;
20067;SDS011;10194;50.824;7.134;2023-11-19T14:22:41;69.60;;;55.03;;
20067;SDS011;10194;50.824;7.134;2023-11-19T14:25:11;70.30;;;55.40;;
20067;SDS011;10194;50.824;7.134;2023-11-19T14:27:37;67.70;;;54.33;;
20067;SDS011;10194;50.824;7.134;2023-11-19T14:30:10;71.50;;;56.17;;
20067;SDS011;10194;50.824;7.134;2023-11-19T14:32:39;70.30;;;55.57;;
20067;SDS011;10194;50.824;7.134;2023-11-19T14:35:07;69.50;;;55.17;;
20067;SDS011;10194;50.824;7.134;2023-11-19T14:37:33;69.00;;;54.57;;
20067;SDS011;10194;50.824;7.134;2023-11-19T14:39:59;64.13;;;52.80;;
20067;SDS011;10194;50.824;7.134;2023-11-19T14:42:28;70.60;;;55.20;;
20067;SDS011;10194;50.824;7.134;2023-11-19T14:44:55;67.27;;;54.40;;
20067;SDS011;10194;50.824;7.134;2023-11-19T14:47:20;67.30;;;54.23;;
20067;SDS011;10194;50.824;7.134;2023-11-19T14:49:47;72.73;;;56.53;;
20067;SDS011;10194;50.824;7.134;2023-11-19T14:52:13;69.77;;;55.27;;
20067;SDS011;10194;50.824;7.134;2023-11-19T14:54:39;71.27;;;56.20;;